createdAt,value
2023-02-27T00:00:19.469Z,-2.23
2023-02-27T00:02:48.130Z,-2.23
2023-02-27T00:05:15.525Z,-2.24
2023-02-27T00:07:42.626Z,-2.21
2023-02-27T00:10:10.880Z,-2.17
2023-02-27T00:12:40.593Z,-2.13
2023-02-27T00:15:09.712Z,-2.10
2023-02-27T00:17:36.458Z,-2.16
2023-02-27T00:20:04.273Z,-2.26
2023-02-27T00:22:31.075Z,-2.27
2023-02-27T00:24:57.749Z,-2.25
2023-02-27T00:27:25.014Z,-2.19
2023-02-27T00:29:51.654Z,-2.24
2023-02-27T00:32:18.373Z,-2.29
2023-02-27T00:34:45.015Z,-2.26
2023-02-27T00:37:11.751Z,-2.18
2023-02-27T00:39:38.401Z,-2.08
2023-02-27T00:42:05.074Z,-1.99
2023-02-27T00:44:31.722Z,-1.91
2023-02-27T00:46:58.388Z,-1.83
2023-02-27T00:49:25.618Z,-1.75
2023-02-27T00:51:53.330Z,-1.67
2023-02-27T00:54:20.420Z,-1.62
2023-02-27T00:56:47.040Z,-1.55
2023-02-27T00:59:13.683Z,-1.54
2023-02-27T01:01:40.667Z,-1.60
2023-02-27T01:04:07.789Z,-1.68
2023-02-27T01:06:34.465Z,-1.75
2023-02-27T01:09:01.157Z,-1.75
2023-02-27T01:11:28.771Z,-1.74
2023-02-27T01:13:55.413Z,-1.71
2023-02-27T01:16:22.142Z,-1.70
2023-02-27T01:18:48.967Z,-1.70
2023-02-27T01:21:15.730Z,-1.69
2023-02-27T01:23:42.485Z,-1.70
2023-02-27T01:26:09.208Z,-1.66
2023-02-27T01:28:35.869Z,-1.62
2023-02-27T01:31:02.604Z,-1.57
2023-02-27T01:33:29.482Z,-1.52
2023-02-27T01:35:56.147Z,-1.42
2023-02-27T01:38:22.826Z,-1.38
2023-02-27T01:40:49.633Z,-1.32
2023-02-27T01:43:19.681Z,-1.28
2023-02-27T01:45:48.930Z,-1.25
2023-02-27T01:48:24.714Z,-1.21
2023-02-27T01:51:15.693Z,-1.17
2023-02-27T01:53:45.262Z,-1.14
2023-02-27T01:56:20.463Z,-1.13
2023-02-27T01:58:48.982Z,-1.16
2023-02-27T02:01:16.434Z,-1.22
2023-02-27T02:03:51.292Z,-1.24
2023-02-27T02:06:19.008Z,-1.23
2023-02-27T02:08:48.143Z,-1.19
2023-02-27T02:11:18.049Z,-1.15
2023-02-27T02:13:45.109Z,-1.12
2023-02-27T02:16:39.655Z,-1.07
2023-02-27T02:19:06.274Z,-1.00
2023-02-27T02:22:07.517Z,-0.97
2023-02-27T02:24:37.195Z,-0.92
2023-02-27T02:27:19.071Z,-0.92
2023-02-27T02:30:07.285Z,-0.94
2023-02-27T02:32:39.717Z,-0.97
2023-02-27T02:35:40.723Z,-1.00
2023-02-27T02:38:22.245Z,-1.00
2023-02-27T02:41:04.243Z,-0.97
2023-02-27T02:43:43.074Z,-0.91
2023-02-27T02:46:40.469Z,-0.84
2023-02-27T02:49:13.163Z,-0.77
2023-02-27T02:51:42.360Z,-0.73
2023-02-27T02:54:33.837Z,-0.68
2023-02-27T02:57:05.587Z,-0.66
2023-02-27T02:59:50.090Z,-0.64
2023-02-27T03:02:26.212Z,-0.65
2023-02-27T03:05:08.174Z,-0.68
2023-02-27T03:07:37.814Z,-0.71
2023-02-27T03:10:09.993Z,-0.72
2023-02-27T03:12:41.092Z,-0.70
2023-02-27T03:15:42.865Z,-0.67
2023-02-27T03:18:21.538Z,-0.61
2023-02-27T03:21:02.021Z,-0.60
2023-02-27T03:23:36.045Z,-0.56
2023-02-27T03:26:04.888Z,-0.56
2023-02-27T03:28:35.923Z,-0.53
2023-02-27T03:31:23.958Z,-0.51
2023-02-27T03:34:01.417Z,-0.49
2023-02-27T03:36:49.732Z,-0.47
2023-02-27T03:39:19.276Z,-0.46
2023-02-27T03:41:58.910Z,-0.45
2023-02-27T03:44:25.498Z,-0.42
2023-02-27T03:46:52.222Z,-0.42
2023-02-27T03:49:18.904Z,-0.36
2023-02-27T03:51:46.015Z,-0.29
2023-02-27T03:54:21.625Z,-0.26
2023-02-27T03:56:55.969Z,-0.22
2023-02-27T03:59:24.619Z,-0.19
2023-02-27T04:01:52.383Z,-0.13
2023-02-27T04:04:19.405Z,-0.08
2023-02-27T04:07:12.676Z,-0.04
2023-02-27T04:09:57.994Z,-0.02
2023-02-27T04:12:46.090Z,0.02
2023-02-27T04:15:40.346Z,0.05
2023-02-27T04:18:32.501Z,0.08
2023-02-27T04:21:22.215Z,0.09
2023-02-27T04:23:57.019Z,0.13
2023-02-27T04:26:23.582Z,0.16
2023-02-27T04:29:05.507Z,0.19
2023-02-27T04:31:39.515Z,0.21
2023-02-27T04:34:11.109Z,0.23
2023-02-27T04:36:46.308Z,0.25
2023-02-27T04:39:26.430Z,0.27
2023-02-27T04:42:11.541Z,0.30
2023-02-27T04:44:39.756Z,0.32
2023-02-27T04:47:10.608Z,0.33
2023-02-27T04:49:51.825Z,0.34
2023-02-27T04:52:24.724Z,0.35
2023-02-27T04:55:20.927Z,0.39
2023-02-27T04:57:54.362Z,0.43
2023-02-27T05:00:24.911Z,0.45
2023-02-27T05:03:09.492Z,0.45
2023-02-27T05:05:38.465Z,0.49
2023-02-27T05:08:33.298Z,0.51
2023-02-27T05:11:14.324Z,0.53
2023-02-27T05:13:48.060Z,0.54
2023-02-27T05:16:33.193Z,0.55
2023-02-27T05:19:01.920Z,0.57
2023-02-27T05:21:40.422Z,0.61
2023-02-27T05:24:30.585Z,0.64
2023-02-27T05:27:17.563Z,0.66
2023-02-27T05:29:53.599Z,0.67
2023-02-27T05:32:26.872Z,0.70
2023-02-27T05:35:29.097Z,0.73
2023-02-27T05:38:20.224Z,0.76
2023-02-27T05:40:52.426Z,0.77
2023-02-27T05:43:24.928Z,0.75
2023-02-27T05:45:56.344Z,0.76
2023-02-27T05:48:35.611Z,0.76
2023-02-27T05:51:03.621Z,0.77
2023-02-27T05:53:34.771Z,0.77
2023-02-27T05:56:05.441Z,0.77
2023-02-27T05:58:44.277Z,0.78
2023-02-27T06:01:12.256Z,0.79
2023-02-27T06:03:41.155Z,0.80
2023-02-27T06:06:13.622Z,0.83
2023-02-27T06:08:41.043Z,0.83
2023-02-27T06:11:07.786Z,0.80
2023-02-27T06:13:34.521Z,0.80
2023-02-27T06:16:01.388Z,0.81
2023-02-27T06:18:28.075Z,0.80
2023-02-27T06:20:54.730Z,0.83
2023-02-27T06:23:21.381Z,0.84
2023-02-27T06:25:49.223Z,0.87
2023-02-27T06:28:16.051Z,0.90
2023-02-27T06:30:43.943Z,0.92
2023-02-27T06:33:12.497Z,0.92
2023-02-27T06:35:39.659Z,0.95
2023-02-27T06:38:06.371Z,0.97
2023-02-27T06:40:33.004Z,0.98
2023-02-27T06:42:59.662Z,0.99
2023-02-27T06:45:26.395Z,1.01
2023-02-27T06:47:53.135Z,1.03
2023-02-27T06:50:20.287Z,1.05
2023-02-27T06:52:47.049Z,1.09
2023-02-27T06:55:13.785Z,1.13
2023-02-27T06:57:40.453Z,1.21
2023-02-27T07:00:08.294Z,1.25
2023-02-27T07:02:34.952Z,1.31
2023-02-27T07:05:07.780Z,1.34
2023-02-27T07:07:37.670Z,1.37
2023-02-27T07:10:11.915Z,1.42
2023-02-27T07:12:39.938Z,1.46
2023-02-27T07:15:08.103Z,1.51
2023-02-27T07:17:34.863Z,1.54
2023-02-27T07:20:01.579Z,1.60
2023-02-27T07:22:28.228Z,1.64
2023-02-27T07:24:54.896Z,1.67
2023-02-27T07:27:21.554Z,1.73
2023-02-27T07:29:48.184Z,1.77
2023-02-27T07:32:14.863Z,1.82
2023-02-27T07:34:41.602Z,1.86
2023-02-27T07:37:08.226Z,1.89
2023-02-27T07:39:34.909Z,1.93
2023-02-27T07:42:01.570Z,1.98
2023-02-27T07:44:28.306Z,2.02
2023-02-27T07:46:55.002Z,2.06
2023-02-27T07:49:21.725Z,2.10
2023-02-27T07:51:48.375Z,2.13
2023-02-27T07:54:15.103Z,2.18
2023-02-27T07:56:41.780Z,2.21
2023-02-27T07:59:08.569Z,2.26
2023-02-27T08:01:35.222Z,2.28
2023-02-27T08:04:01.888Z,2.32
2023-02-27T08:06:28.910Z,2.36
2023-02-27T08:08:55.849Z,2.38
2023-02-27T08:11:22.584Z,2.44
2023-02-27T08:14:05.426Z,2.49
2023-02-27T08:16:32.836Z,2.53
2023-02-27T08:19:00.990Z,2.58
2023-02-27T08:21:28.806Z,2.61
2023-02-27T08:23:55.764Z,2.66
2023-02-27T08:26:22.655Z,2.71
2023-02-27T08:28:49.436Z,2.75
2023-02-27T08:31:16.322Z,2.78
2023-02-27T08:33:43.016Z,2.81
2023-02-27T08:36:10.252Z,2.85
2023-02-27T08:38:37.183Z,2.90
2023-02-27T08:41:04.502Z,2.94
2023-02-27T08:43:31.172Z,2.98
2023-02-27T08:45:58.163Z,3.00
2023-02-27T08:48:24.996Z,3.05
2023-02-27T08:50:52.375Z,3.10
2023-02-27T08:53:19.497Z,3.15
2023-02-27T08:55:50.145Z,3.17
2023-02-27T08:58:18.176Z,3.21
2023-02-27T09:00:45.674Z,3.25
2023-02-27T09:03:17.769Z,3.29
2023-02-27T09:05:44.428Z,3.33
2023-02-27T09:08:11.809Z,3.38
2023-02-27T09:10:38.483Z,3.42
2023-02-27T09:13:05.186Z,3.45
2023-02-27T09:15:34.547Z,3.49
2023-02-27T09:18:03.328Z,3.53
2023-02-27T09:20:31.841Z,3.58
2023-02-27T09:22:59.729Z,3.61
2023-02-27T09:25:27.324Z,3.66
2023-02-27T09:27:54.221Z,3.70
2023-02-27T09:30:21.310Z,3.74
2023-02-27T09:32:48.100Z,3.82
2023-02-27T09:35:17.615Z,3.89
2023-02-27T09:37:44.368Z,3.93
2023-02-27T09:40:37.832Z,3.97
2023-02-27T09:43:14.655Z,4.02
2023-02-27T09:45:42.212Z,4.09
2023-02-27T09:48:28.784Z,4.15
2023-02-27T09:50:57.178Z,4.24
2023-02-27T09:53:27.657Z,4.31
2023-02-27T09:56:04.496Z,4.38
2023-02-27T09:58:55.686Z,4.48
2023-02-27T10:01:32.032Z,4.53
2023-02-27T10:04:35.997Z,4.57
2023-02-27T10:07:44.779Z,4.63
2023-02-27T10:10:11.390Z,4.68
2023-02-27T10:12:58.504Z,4.71
2023-02-27T10:15:36.936Z,4.79
2023-02-27T10:18:27.010Z,4.84
2023-02-27T10:21:10.522Z,4.90
2023-02-27T10:23:44.129Z,4.96
2023-02-27T10:26:24.966Z,5.03
2023-02-27T10:28:51.856Z,5.11
2023-02-27T10:31:23.886Z,5.16
2023-02-27T10:33:52.299Z,5.21
2023-02-27T10:36:33.093Z,5.26
2023-02-27T10:39:15.602Z,5.34
2023-02-27T10:41:45.472Z,5.40
2023-02-27T10:44:16.528Z,5.43
2023-02-27T10:46:43.504Z,5.46
2023-02-27T10:49:19.491Z,5.52
2023-02-27T10:51:48.054Z,5.58
2023-02-27T10:54:24.664Z,5.64
2023-02-27T10:56:54.635Z,5.70
2023-02-27T10:59:33.084Z,5.77
2023-02-27T11:02:21.792Z,5.82
2023-02-27T11:04:58.693Z,5.84
2023-02-27T11:07:28.114Z,5.92
2023-02-27T11:10:05.129Z,5.99
2023-02-27T11:12:35.471Z,6.07
2023-02-27T11:15:22.137Z,6.13
2023-02-27T11:17:49.078Z,6.22
2023-02-27T11:20:37.698Z,6.31
2023-02-27T11:23:06.145Z,6.37
2023-02-27T11:25:33.701Z,6.42
2023-02-27T11:28:30.420Z,6.42
2023-02-27T11:31:02.118Z,6.45
2023-02-27T11:33:31.765Z,6.52
2023-02-27T11:35:59.603Z,6.53
2023-02-27T11:38:29.072Z,6.53
2023-02-27T11:41:07.300Z,6.51
2023-02-27T11:43:33.878Z,6.53
2023-02-27T11:46:29.542Z,6.57
2023-02-27T11:49:24.721Z,6.58
2023-02-27T11:52:03.185Z,6.58
2023-02-27T11:54:48.667Z,6.62
2023-02-27T11:57:35.147Z,6.70
2023-02-27T12:00:08.846Z,6.73
2023-02-27T12:02:50.533Z,6.76
2023-02-27T12:05:44.390Z,6.79
2023-02-27T12:08:36.076Z,6.83
2023-02-27T12:11:16.023Z,6.85
2023-02-27T12:13:47.439Z,6.88
2023-02-27T12:16:22.497Z,6.91
2023-02-27T12:18:56.041Z,6.90
2023-02-27T12:21:27.252Z,6.92
2023-02-27T12:23:59.063Z,6.91
2023-02-27T12:26:39.995Z,6.93
2023-02-27T12:29:40.531Z,6.97
2023-02-27T12:32:42.948Z,7.00
2023-02-27T12:35:27.951Z,7.02
2023-02-27T12:37:55.716Z,7.02
2023-02-27T12:40:39.414Z,7.05
2023-02-27T12:43:11.996Z,7.07
2023-02-27T12:45:53.721Z,7.08
2023-02-27T12:48:48.027Z,7.09
2023-02-27T12:51:36.228Z,7.12
2023-02-27T12:54:27.110Z,7.13
2023-02-27T12:57:05.668Z,7.17
2023-02-27T13:00:09.453Z,7.21
2023-02-27T13:02:54.726Z,7.24
2023-02-27T13:05:45.780Z,7.26
2023-02-27T13:08:39.038Z,7.28
2023-02-27T13:11:12.153Z,7.32
2023-02-27T13:13:44.123Z,7.36
2023-02-27T13:16:17.744Z,7.39
2023-02-27T13:18:54.512Z,7.42
2023-02-27T13:21:39.963Z,7.45
2023-02-27T13:24:20.675Z,7.47
2023-02-27T13:26:55.978Z,7.50
2023-02-27T13:29:34.946Z,7.55
2023-02-27T13:32:29.975Z,7.59
2023-02-27T13:35:31.258Z,7.64
2023-02-27T13:38:05.336Z,7.64
2023-02-27T13:40:40.254Z,7.64
2023-02-27T13:43:33.193Z,7.67
2023-02-27T13:46:34.345Z,7.68
2023-02-27T13:49:20.050Z,7.71
2023-02-27T13:51:56.760Z,7.73
2023-02-27T13:54:39.516Z,7.74
2023-02-27T13:57:19.028Z,7.76
2023-02-27T13:59:54.019Z,7.79
2023-02-27T14:02:46.624Z,7.81
2023-02-27T14:05:32.866Z,7.83
2023-02-27T14:08:10.742Z,7.86
2023-02-27T14:10:40.595Z,7.89
2023-02-27T14:13:45.358Z,7.93
2023-02-27T14:16:33.509Z,7.91
2023-02-27T14:19:01.669Z,7.90
2023-02-27T14:21:49.870Z,7.88
2023-02-27T14:24:20.753Z,7.88
2023-02-27T14:26:47.766Z,7.90
2023-02-27T14:29:18.582Z,7.92
2023-02-27T14:31:45.949Z,7.96
2023-02-27T14:34:16.302Z,7.98
2023-02-27T14:36:47.443Z,7.98
2023-02-27T14:39:35.080Z,7.95
2023-02-27T14:42:39.323Z,7.89
2023-02-27T14:45:15.598Z,7.84
2023-02-27T14:47:42.854Z,7.80
2023-02-27T14:50:25.374Z,7.77
2023-02-27T14:52:52.358Z,7.75
2023-02-27T14:55:27.950Z,7.71
2023-02-27T14:57:56.151Z,7.68
2023-02-27T15:00:35.030Z,7.66
2023-02-27T15:03:16.418Z,7.64
2023-02-27T15:05:43.335Z,7.59
2023-02-27T15:08:23.874Z,7.56
2023-02-27T15:10:53.002Z,7.52
2023-02-27T15:13:24.683Z,7.51
2023-02-27T15:15:53.944Z,7.46
2023-02-27T15:18:23.114Z,7.42
2023-02-27T15:20:58.010Z,7.39
2023-02-27T15:23:28.203Z,7.37
2023-02-27T15:25:57.324Z,7.37
2023-02-27T15:28:26.948Z,7.34
2023-02-27T15:30:55.937Z,7.33
2023-02-27T15:33:30.825Z,7.29
2023-02-27T15:35:58.566Z,7.27
2023-02-27T15:38:34.449Z,7.23
2023-02-27T15:41:03.485Z,7.18
2023-02-27T15:43:31.484Z,7.11
2023-02-27T15:45:58.540Z,7.07
2023-02-27T15:48:26.052Z,7.01
2023-02-27T15:51:03.816Z,6.95
2023-02-27T15:53:34.127Z,6.88
2023-02-27T15:56:04.703Z,6.85
2023-02-27T15:58:35.574Z,6.81
2023-02-27T16:01:06.180Z,6.77
2023-02-27T16:03:37.232Z,6.70
2023-02-27T16:06:12.228Z,6.61
2023-02-27T16:08:46.401Z,6.52
2023-02-27T16:11:34.714Z,6.44
2023-02-27T16:14:02.126Z,6.35
2023-02-27T16:16:36.215Z,6.30
2023-02-27T16:19:28.078Z,6.23
2023-02-27T16:22:14.466Z,6.14
2023-02-27T16:24:45.314Z,6.08
2023-02-27T16:27:31.902Z,5.99
2023-02-27T16:30:03.058Z,5.94
2023-02-27T16:32:36.111Z,5.89
2023-02-27T16:35:08.549Z,5.84
2023-02-27T16:37:38.052Z,5.80
2023-02-27T16:40:15.508Z,5.76
2023-02-27T16:42:42.980Z,5.70
2023-02-27T16:45:27.531Z,5.64
2023-02-27T16:47:56.975Z,5.61
2023-02-27T16:50:31.764Z,5.57
2023-02-27T16:52:58.466Z,5.52
2023-02-27T16:55:26.008Z,5.49
2023-02-27T16:57:52.737Z,5.44
2023-02-27T17:00:20.860Z,5.41
2023-02-27T17:02:48.330Z,5.36
2023-02-27T17:05:15.581Z,5.32
2023-02-27T17:07:42.891Z,5.28
2023-02-27T17:10:16.361Z,5.25
2023-02-27T17:12:44.145Z,5.21
2023-02-27T17:15:11.269Z,5.17
2023-02-27T17:17:37.967Z,5.13
2023-02-27T17:20:07.404Z,5.11
2023-02-27T17:22:42.972Z,5.05
2023-02-27T17:25:11.411Z,4.99
2023-02-27T17:27:38.405Z,4.94
2023-02-27T17:30:06.596Z,4.90
2023-02-27T17:32:34.663Z,4.84
2023-02-27T17:35:02.791Z,4.77
2023-02-27T17:37:29.550Z,4.71
2023-02-27T17:39:56.232Z,4.68
2023-02-27T17:42:25.776Z,4.64
2023-02-27T17:44:52.583Z,4.61
2023-02-27T17:47:19.565Z,4.56
2023-02-27T17:49:46.283Z,4.53
2023-02-27T17:52:13.150Z,4.49
2023-02-27T17:54:40.025Z,4.44
2023-02-27T17:57:06.928Z,4.41
2023-02-27T17:59:33.736Z,4.37
2023-02-27T18:02:00.403Z,4.32
2023-02-27T18:04:27.073Z,4.30
2023-02-27T18:06:54.232Z,4.28
2023-02-27T18:09:20.974Z,4.27
2023-02-27T18:11:47.722Z,4.27
2023-02-27T18:14:14.394Z,4.27
2023-02-27T18:16:42.630Z,4.27
2023-02-27T18:19:09.434Z,4.26
2023-02-27T18:21:36.138Z,4.24
2023-02-27T18:24:02.969Z,4.22
2023-02-27T18:26:32.925Z,4.21
2023-02-27T18:29:04.320Z,4.20
2023-02-27T18:31:34.795Z,4.20
2023-02-27T18:34:02.562Z,4.20
2023-02-27T18:36:30.429Z,4.19
2023-02-27T18:38:58.518Z,4.16
2023-02-27T18:41:25.316Z,4.14
2023-02-27T18:43:52.055Z,4.10
2023-02-27T18:46:18.942Z,4.04
2023-02-27T18:48:46.239Z,4.02
2023-02-27T18:51:15.552Z,4.01
2023-02-27T18:53:45.912Z,3.99
2023-02-27T18:56:14.031Z,3.99
2023-02-27T18:58:41.129Z,4.00
2023-02-27T19:01:08.450Z,3.98
2023-02-27T19:03:36.024Z,3.96
2023-02-27T19:06:03.512Z,3.96
2023-02-27T19:08:30.508Z,3.92
2023-02-27T19:10:58.557Z,3.87
2023-02-27T19:13:25.866Z,3.86
2023-02-27T19:15:54.033Z,3.85
2023-02-27T19:18:20.726Z,3.82
2023-02-27T19:20:47.751Z,3.77
2023-02-27T19:23:14.416Z,3.76
2023-02-27T19:25:42.126Z,3.76
2023-02-27T19:28:14.612Z,3.74
2023-02-27T19:30:41.429Z,3.73
2023-02-27T19:33:08.921Z,3.72
2023-02-27T19:35:38.781Z,3.72
2023-02-27T19:38:05.506Z,3.72
2023-02-27T19:40:32.315Z,3.67
2023-02-27T19:43:01.179Z,3.67
2023-02-27T19:45:28.395Z,3.68
2023-02-27T19:47:55.150Z,3.67
2023-02-27T19:50:21.799Z,3.67
2023-02-27T19:52:48.503Z,3.63
2023-02-27T19:55:15.219Z,3.64
2023-02-27T19:57:42.627Z,3.64
2023-02-27T20:00:10.352Z,3.63
2023-02-27T20:02:39.011Z,3.61
2023-02-27T20:05:06.324Z,3.58
2023-02-27T20:07:33.100Z,3.56
2023-02-27T20:09:59.814Z,3.53
2023-02-27T20:12:26.620Z,3.51
2023-02-27T20:14:53.307Z,3.49
2023-02-27T20:17:20.029Z,3.47
2023-02-27T20:19:46.661Z,3.46
2023-02-27T20:22:13.734Z,3.44
2023-02-27T20:24:40.400Z,3.39
2023-02-27T20:27:07.482Z,3.36
2023-02-27T20:29:34.143Z,3.32
2023-02-27T20:32:01.286Z,3.29
2023-02-27T20:34:28.651Z,3.26
2023-02-27T20:36:56.367Z,3.24
2023-02-27T20:39:23.811Z,3.20
2023-02-27T20:41:54.485Z,3.17
2023-02-27T20:44:21.304Z,3.09
2023-02-27T20:46:50.729Z,3.06
2023-02-27T20:49:18.018Z,3.03
2023-02-27T20:51:45.223Z,3.00
2023-02-27T20:54:20.091Z,2.99
2023-02-27T20:56:48.716Z,2.97
2023-02-27T20:59:16.826Z,2.97
2023-02-27T21:01:51.535Z,2.95
2023-02-27T21:04:42.927Z,2.93
2023-02-27T21:07:15.457Z,2.93
2023-02-27T21:09:42.355Z,2.92
2023-02-27T21:12:09.560Z,2.91
2023-02-27T21:14:37.072Z,2.92
2023-02-27T21:17:05.774Z,2.92
2023-02-27T21:19:32.515Z,2.94
2023-02-27T21:21:59.204Z,2.94
2023-02-27T21:24:25.968Z,2.96
2023-02-27T21:26:52.795Z,2.98
2023-02-27T21:29:21.358Z,2.99
2023-02-27T21:31:50.358Z,3.02
2023-02-27T21:34:23.750Z,3.03
2023-02-27T21:36:52.107Z,3.03
2023-02-27T21:39:27.485Z,3.03
2023-02-27T21:41:54.804Z,3.02
2023-02-27T21:44:26.267Z,3.00
2023-02-27T21:46:55.928Z,2.99
2023-02-27T21:49:28.373Z,2.97
2023-02-27T21:51:55.735Z,2.94
2023-02-27T21:54:23.103Z,2.93
